createdAt,value
2018-03-07T00:01:42.799Z,79.10
2018-03-07T00:04:46.409Z,79.60
2018-03-07T00:07:49.789Z,79.20
2018-03-07T00:10:54.010Z,79.50
2018-03-07T00:13:57.392Z,79.00
2018-03-07T00:17:00.808Z,78.90
2018-03-07T00:20:04.242Z,78.90
2018-03-07T00:23:07.513Z,79.40
2018-03-07T00:26:11.017Z,79.20
2018-03-07T00:29:14.490Z,79.10
2018-03-07T00:32:17.921Z,79.10
2018-03-07T00:35:21.277Z,79.00
2018-03-07T00:38:24.616Z,79.60
2018-03-07T00:41:28.023Z,79.70
2018-03-07T00:44:31.462Z,79.50
2018-03-07T00:47:34.845Z,79.60
2018-03-07T00:50:38.249Z,79.70
2018-03-07T00:53:41.737Z,79.60
2018-03-07T00:56:45.422Z,79.60
2018-03-07T00:59:49.042Z,79.60
2018-03-07T01:02:52.414Z,79.80
2018-03-07T01:05:55.890Z,79.80
2018-03-07T01:08:59.381Z,79.50
2018-03-07T01:12:02.812Z,79.60
2018-03-07T01:15:07.232Z,80.70
2018-03-07T01:18:11.457Z,80.80
2018-03-07T01:21:16.611Z,80.80
2018-03-07T01:24:20.027Z,80.50
2018-03-07T01:27:23.427Z,80.80
2018-03-07T01:30:26.819Z,80.90
2018-03-07T01:33:31.531Z,81.00
2018-03-07T01:36:35.197Z,80.50
2018-03-07T01:39:38.679Z,80.20
2018-03-07T01:42:43.398Z,80.70
2018-03-07T01:45:47.696Z,80.70
2018-03-07T01:48:51.310Z,80.10
2018-03-07T01:52:01.771Z,79.90
2018-03-07T01:55:05.995Z,80.70
2018-03-07T01:58:09.424Z,80.00
2018-03-07T02:01:12.844Z,79.70
2018-03-07T02:04:16.270Z,79.50
2018-03-07T02:07:20.493Z,80.00
2018-03-07T02:28:52.343Z,81.50
2018-03-07T02:31:55.851Z,81.10
2018-03-07T02:34:59.321Z,81.60
2018-03-07T02:38:03.623Z,81.70
2018-03-07T02:41:07.080Z,81.30
2018-03-07T02:44:10.496Z,81.90
2018-03-07T02:47:14.733Z,82.30
2018-03-07T02:50:18.114Z,81.80
2018-03-07T02:53:21.436Z,81.70
2018-03-07T02:56:24.779Z,81.50
2018-03-07T02:59:28.159Z,81.90
2018-03-07T03:02:32.124Z,82.30
2018-03-07T03:05:36.202Z,82.80
2018-03-07T03:08:39.724Z,82.60
2018-03-07T03:11:45.075Z,83.40
2018-03-07T03:14:48.515Z,82.70
2018-03-07T03:17:52.208Z,82.60
2018-03-07T03:20:55.635Z,83.00
2018-03-07T03:23:59.098Z,83.00
2018-03-07T03:27:02.523Z,83.20
2018-03-07T03:30:05.786Z,83.40
2018-03-07T03:33:09.084Z,83.50
2018-03-07T03:36:12.406Z,83.60
2018-03-07T03:39:15.910Z,83.70
2018-03-07T03:42:19.315Z,83.70
2018-03-07T03:45:23.686Z,83.50
2018-03-07T03:48:27.235Z,83.10
2018-03-07T03:51:30.654Z,83.00
2018-03-07T03:54:34.284Z,82.80
2018-03-07T03:57:38.206Z,83.10
2018-03-07T04:00:41.612Z,82.90
2018-03-07T04:03:45.869Z,83.40
2018-03-07T04:06:50.208Z,82.80
2018-03-07T04:09:53.809Z,82.50
2018-03-07T04:12:57.210Z,82.60
2018-03-07T04:16:01.374Z,82.70
2018-03-07T04:19:10.946Z,82.20
2018-03-07T04:22:15.120Z,82.50
2018-03-07T04:25:18.590Z,82.00
2018-03-07T04:28:22.023Z,82.10
2018-03-07T04:31:25.463Z,82.20
2018-03-07T04:34:28.866Z,82.00
2018-03-07T04:37:33.093Z,82.30
2018-03-07T04:40:37.333Z,82.70
2018-03-07T04:43:40.786Z,81.90
2018-03-07T04:46:45.065Z,82.80
2018-03-07T04:49:48.593Z,82.10
2018-03-07T04:52:51.895Z,82.20
2018-03-07T04:55:55.475Z,82.10
2018-03-07T04:58:59.217Z,82.10
2018-03-07T05:02:02.638Z,81.90
2018-03-07T05:05:06.084Z,81.90
2018-03-07T05:08:09.572Z,81.80
2018-03-07T05:11:13.044Z,81.60
2018-03-07T05:14:16.531Z,81.80
2018-03-07T05:17:19.916Z,82.10
2018-03-07T05:20:24.104Z,82.50
2018-03-07T05:23:27.575Z,82.10
2018-03-07T05:26:32.083Z,82.50
2018-03-07T05:29:36.297Z,82.80
2018-03-07T05:32:39.728Z,82.50
2018-03-07T05:35:43.234Z,82.20
2018-03-07T05:38:46.596Z,81.70
2018-03-07T05:41:50.707Z,83.00
2018-03-07T05:44:54.839Z,83.20
2018-03-07T05:47:58.291Z,82.80
2018-03-07T05:51:01.746Z,83.10
2018-03-07T05:54:05.958Z,83.00
2018-03-07T05:57:10.375Z,83.00
2018-03-07T06:00:13.782Z,82.60
2018-03-07T06:03:17.223Z,82.50
2018-03-07T06:06:20.794Z,82.10
2018-03-07T06:09:24.213Z,82.30
2018-03-07T06:12:27.647Z,82.20
2018-03-07T06:15:31.089Z,82.30
2018-03-07T06:18:34.537Z,82.10
2018-03-07T06:21:38.025Z,82.10
2018-03-07T06:24:41.466Z,82.00
2018-03-07T06:27:45.652Z,82.00
2018-03-07T06:30:49.339Z,81.60
2018-03-07T06:33:52.768Z,81.70
2018-03-07T06:36:56.252Z,81.80
2018-03-07T06:40:00.426Z,82.40
2018-03-07T06:43:03.906Z,82.20
2018-03-07T06:46:08.074Z,82.30
2018-03-07T06:49:12.368Z,82.20
2018-03-07T06:52:15.967Z,81.80
2018-03-07T06:55:19.493Z,82.20
2018-03-07T06:58:22.944Z,81.90
2018-03-07T07:01:26.405Z,81.90
2018-03-07T07:04:29.774Z,81.90
2018-03-07T07:07:34.047Z,81.80
2018-03-07T07:10:38.589Z,81.40
2018-03-07T07:13:42.778Z,80.60
2018-03-07T07:16:47.098Z,80.40
2018-03-07T07:19:51.265Z,79.50
2018-03-07T07:22:54.700Z,79.10
2018-03-07T07:25:58.124Z,80.40
2018-03-07T07:29:01.595Z,80.80
2018-03-07T07:32:05.063Z,81.20
2018-03-07T07:35:09.361Z,80.60
2018-03-07T07:38:12.910Z,80.30
2018-03-07T07:41:16.269Z,80.70
2018-03-07T07:44:19.697Z,82.20
2018-03-07T07:47:23.199Z,84.10
2018-03-07T07:50:27.420Z,86.30
2018-03-07T07:53:31.529Z,86.90
2018-03-07T07:56:35.761Z,87.50
2018-03-07T07:59:39.178Z,87.30
2018-03-07T08:02:42.652Z,87.50
2018-03-07T08:05:46.080Z,88.00
2018-03-07T08:08:49.654Z,88.00
2018-03-07T08:11:53.848Z,89.10
2018-03-07T08:14:57.210Z,88.80
2018-03-07T08:18:00.688Z,89.20
2018-03-07T08:21:04.914Z,89.20
2018-03-07T08:24:08.327Z,89.00
2018-03-07T08:27:11.945Z,88.50
2018-03-07T08:30:15.446Z,88.70
2018-03-07T08:33:18.865Z,88.90
2018-03-07T08:36:22.335Z,89.10
2018-03-07T08:39:25.803Z,88.50
2018-03-07T08:42:29.306Z,88.30
2018-03-07T08:45:32.819Z,87.30
2018-03-07T08:48:36.217Z,86.20
2018-03-07T08:51:39.688Z,85.40
2018-03-07T08:54:43.144Z,84.80
2018-03-07T08:57:47.364Z,85.40
2018-03-07T09:00:50.665Z,85.30
2018-03-07T09:03:54.017Z,84.90
2018-03-07T09:06:57.403Z,85.10
2018-03-07T09:10:00.804Z,84.00
2018-03-07T09:13:05.074Z,83.80
2018-03-07T09:16:08.576Z,83.60
2018-03-07T09:19:12.694Z,83.00
2018-03-07T09:22:16.222Z,82.90
2018-03-07T09:25:19.616Z,82.60
2018-03-07T09:28:23.896Z,81.00
2018-03-07T09:31:27.193Z,80.90
2018-03-07T09:34:30.550Z,80.60
2018-03-07T09:37:34.724Z,81.90
2018-03-07T09:40:38.053Z,81.80
2018-03-07T09:43:41.435Z,82.20
2018-03-07T09:46:44.800Z,81.10
2018-03-07T09:49:48.919Z,80.70
2018-03-07T09:52:52.289Z,80.60
2018-03-07T09:55:56.404Z,77.30
2018-03-07T09:59:00.647Z,77.50
2018-03-07T10:02:04.027Z,77.30
2018-03-07T10:05:07.398Z,76.30
2018-03-07T10:08:10.992Z,76.40
2018-03-07T10:11:14.359Z,75.10
2018-03-07T10:14:17.794Z,71.80
2018-03-07T10:17:21.316Z,70.70
2018-03-07T10:20:25.424Z,67.10
2018-03-07T10:23:29.778Z,63.20
2018-03-07T10:26:33.330Z,63.10
2018-03-07T10:29:36.744Z,60.60
2018-03-07T10:32:40.094Z,58.70
2018-03-07T10:35:44.531Z,58.60
2018-03-07T10:38:47.967Z,58.50
2018-03-07T10:41:51.373Z,58.90
2018-03-07T10:44:54.810Z,57.60
2018-03-07T10:47:59.038Z,56.60
2018-03-07T10:51:03.147Z,56.40
2018-03-07T10:54:07.247Z,57.30
2018-03-07T10:57:10.758Z,57.30
2018-03-07T11:00:29.664Z,58.10
2018-03-07T11:03:32.987Z,58.00
2018-03-07T11:06:36.342Z,58.60
2018-03-07T11:09:39.663Z,58.10
2018-03-07T11:12:43.019Z,58.40
2018-03-07T11:15:46.522Z,57.70
2018-03-07T11:18:50.216Z,57.70
2018-03-07T11:21:53.723Z,57.00
2018-03-07T11:28:06.879Z,60.00
2018-03-07T11:31:10.511Z,60.00
2018-03-07T11:34:13.961Z,60.00
2018-03-07T11:37:17.503Z,59.50
2018-03-07T11:40:20.910Z,59.40
2018-03-07T11:43:24.428Z,60.80
2018-03-07T11:46:27.861Z,61.00
2018-03-07T11:49:31.479Z,60.50
2018-03-07T11:52:34.895Z,59.60
2018-03-07T11:55:38.406Z,59.60
2018-03-07T11:58:41.884Z,58.60
2018-03-07T12:01:45.316Z,58.60
2018-03-07T12:04:48.744Z,58.20
2018-03-07T12:07:53.018Z,57.20
2018-03-07T12:10:56.491Z,57.00
2018-03-07T12:13:59.957Z,58.50
2018-03-07T12:17:03.486Z,59.60
2018-03-07T12:20:06.971Z,61.20
2018-03-07T12:23:11.215Z,63.30
2018-03-07T12:26:14.752Z,62.80
2018-03-07T12:29:18.222Z,61.90
2018-03-07T12:32:21.687Z,61.60
2018-03-07T12:35:25.182Z,62.60
2018-03-07T12:38:28.621Z,62.90
2018-03-07T12:41:32.073Z,62.70
2018-03-07T12:44:36.310Z,62.70
2018-03-07T12:47:40.645Z,61.60
2018-03-07T12:50:44.810Z,61.80
2018-03-07T12:53:48.299Z,61.30
2018-03-07T12:56:51.697Z,61.90
2018-03-07T12:59:55.180Z,63.70
2018-03-07T13:02:58.749Z,63.90
2018-03-07T13:06:02.942Z,62.70
2018-03-07T13:09:06.369Z,62.30
2018-03-07T13:12:09.990Z,61.90
2018-03-07T13:15:13.452Z,60.60
2018-03-07T13:18:17.641Z,63.40
2018-03-07T13:21:21.920Z,65.00
2018-03-07T13:24:25.491Z,63.70
2018-03-07T13:27:29.710Z,65.40
2018-03-07T13:30:33.242Z,64.90
2018-03-07T13:33:37.408Z,66.30
2018-03-07T13:36:40.785Z,66.10
2018-03-07T13:39:44.275Z,65.70
2018-03-07T13:42:47.750Z,65.30
2018-03-07T13:45:51.957Z,66.30
2018-03-07T13:48:55.355Z,65.90
2018-03-07T13:51:58.782Z,66.40
2018-03-07T13:55:02.332Z,66.90
2018-03-07T13:58:05.788Z,67.70
2018-03-07T14:01:09.154Z,67.20
2018-03-07T14:04:13.477Z,68.00
2018-03-07T14:07:17.255Z,67.50
2018-03-07T14:10:20.678Z,66.70
2018-03-07T14:13:24.952Z,66.90
2018-03-07T14:16:28.382Z,66.40
2018-03-07T14:19:31.829Z,66.80
2018-03-07T14:22:35.347Z,67.90
2018-03-07T14:25:38.725Z,67.00
2018-03-07T14:28:42.907Z,68.40
2018-03-07T14:31:46.379Z,68.00
2018-03-07T14:34:49.844Z,68.40
2018-03-07T14:37:53.255Z,68.70
2018-03-07T14:40:56.787Z,68.50
2018-03-07T14:44:00.235Z,69.00
2018-03-07T14:47:04.556Z,68.10
2018-03-07T14:56:14.782Z,67.10
2018-03-07T15:12:24.915Z,67.80
2018-03-07T15:15:29.025Z,69.10
2018-03-07T15:18:32.389Z,68.70
2018-03-07T15:21:35.809Z,68.80
2018-03-07T15:24:40.202Z,69.00
2018-03-07T15:27:43.511Z,68.60
2018-03-07T15:30:46.969Z,68.70
2018-03-07T15:33:50.369Z,68.30
2018-03-07T15:36:54.411Z,68.40
2018-03-07T15:39:57.735Z,68.20
2018-03-07T15:43:01.174Z,68.50
2018-03-07T15:46:04.545Z,68.20
2018-03-07T15:49:08.675Z,68.10
2018-03-07T15:52:12.276Z,67.70
2018-03-07T15:55:16.384Z,68.70
2018-03-07T15:58:20.641Z,68.20
2018-03-07T16:01:24.003Z,68.00
2018-03-07T16:04:27.336Z,66.90
2018-03-07T16:07:30.693Z,66.90
2018-03-07T16:10:34.008Z,66.60
2018-03-07T16:13:38.352Z,66.40
2018-03-07T16:16:41.674Z,66.10
2018-03-07T16:19:45.064Z,66.00
2018-03-07T16:22:48.415Z,66.70
2018-03-07T16:25:51.898Z,67.10
2018-03-07T16:28:55.215Z,67.10
2018-03-07T16:31:59.346Z,67.40
2018-03-07T16:35:02.721Z,67.20
2018-03-07T16:38:06.195Z,67.10
2018-03-07T16:41:09.592Z,67.20
2018-03-07T16:44:12.951Z,67.80
2018-03-07T16:47:16.870Z,67.70
2018-03-07T16:50:20.178Z,68.00
2018-03-07T16:53:23.603Z,68.30
2018-03-07T16:56:26.968Z,68.40
2018-03-07T16:59:31.054Z,68.50
2018-03-07T17:02:34.492Z,68.40
2018-03-07T17:05:37.993Z,68.50
2018-03-07T17:08:42.167Z,69.50
2018-03-07T17:11:45.606Z,69.20
2018-03-07T17:14:48.948Z,69.30
2018-03-07T17:17:52.402Z,70.20
2018-03-07T17:20:55.842Z,70.40
2018-03-07T17:23:59.267Z,70.80
2018-03-07T17:27:03.082Z,71.50
2018-03-07T17:30:06.502Z,72.00
2018-03-07T17:33:10.121Z,72.10
2018-03-07T17:36:13.530Z,72.70
2018-03-07T17:39:17.743Z,73.10
2018-03-07T17:42:21.441Z,73.60
2018-03-07T17:45:24.989Z,74.20
2018-03-07T17:48:28.864Z,74.90
2018-03-07T17:51:33.043Z,76.00
2018-03-07T17:54:36.438Z,75.80
2018-03-07T17:57:40.561Z,77.20
2018-03-07T18:00:44.687Z,76.70
2018-03-07T18:03:48.821Z,76.80
2018-03-07T18:06:52.215Z,76.50
2018-03-07T18:09:55.519Z,76.70
2018-03-07T18:12:59.030Z,76.30
2018-03-07T18:16:02.510Z,76.70
2018-03-07T18:19:05.883Z,76.50
2018-03-07T18:22:09.354Z,76.70
2018-03-07T18:25:12.851Z,76.40
2018-03-07T18:28:16.188Z,76.80
2018-03-07T18:31:20.960Z,76.60
2018-03-07T18:34:24.339Z,76.40
2018-03-07T18:37:27.726Z,77.10
2018-03-07T18:40:31.054Z,76.90
2018-03-07T18:43:34.525Z,77.20
2018-03-07T18:46:37.961Z,77.30
2018-03-07T18:49:42.056Z,77.50
2018-03-07T18:52:45.435Z,77.30
2018-03-07T18:55:49.033Z,77.20
2018-03-07T18:58:52.342Z,77.80
2018-03-07T19:01:55.773Z,76.90
2018-03-07T19:04:59.198Z,77.10
2018-03-07T19:08:02.536Z,76.90
2018-03-07T19:11:06.658Z,77.10
2018-03-07T19:14:11.285Z,76.90
2018-03-07T19:17:14.748Z,76.50
2018-03-07T19:20:20.002Z,76.00
2018-03-07T19:23:23.493Z,76.20
2018-03-07T19:26:26.968Z,75.70
2018-03-07T19:29:30.326Z,75.40
2018-03-07T19:32:34.555Z,75.70
2018-03-07T19:35:37.988Z,75.40
2018-03-07T19:38:41.422Z,75.10
2018-03-07T19:41:45.630Z,75.60
2018-03-07T19:44:48.998Z,75.30
2018-03-07T19:47:52.371Z,75.00
2018-03-07T19:50:55.774Z,75.10
2018-03-07T19:53:59.222Z,75.00
2018-03-07T19:57:03.815Z,74.80
2018-03-07T20:00:09.118Z,74.70
2018-03-07T20:03:12.534Z,74.40
2018-03-07T20:06:16.103Z,74.20
2018-03-07T20:09:19.507Z,74.10
2018-03-07T20:12:23.092Z,74.10
2018-03-07T20:15:26.525Z,73.60
2018-03-07T20:18:30.729Z,73.40
2018-03-07T20:21:34.193Z,73.30
2018-03-07T20:24:37.550Z,73.10
2018-03-07T20:27:41.049Z,73.40
2018-03-07T20:30:44.424Z,73.40
2018-03-07T20:33:47.818Z,73.30
2018-03-07T20:36:52.063Z,73.60
2018-03-07T20:39:55.599Z,74.00
2018-03-07T20:42:59.090Z,73.70
2018-03-07T20:46:02.491Z,74.40
2018-03-07T20:49:05.949Z,75.50
2018-03-07T20:52:09.395Z,75.80
2018-03-07T20:55:13.102Z,76.60
2018-03-07T20:58:16.487Z,77.20
2018-03-07T21:01:19.908Z,77.80
2018-03-07T21:04:23.380Z,78.50
2018-03-07T21:07:26.701Z,79.30
2018-03-07T21:10:30.106Z,79.50
2018-03-07T21:13:33.474Z,79.20
2018-03-07T21:16:36.936Z,79.00
2018-03-07T21:19:40.340Z,78.80
2018-03-07T21:22:44.115Z,78.60
2018-03-07T21:25:47.644Z,78.30
2018-03-07T21:28:51.042Z,78.20
2018-03-07T21:31:54.565Z,77.90
2018-03-07T21:34:58.764Z,77.90
2018-03-07T21:38:02.221Z,77.80
2018-03-07T21:41:05.648Z,77.60
2018-03-07T21:44:09.182Z,77.70
2018-03-07T21:47:12.772Z,77.80
2018-03-07T21:50:16.118Z,77.70
2018-03-07T21:53:20.305Z,78.70
2018-03-07T21:56:23.683Z,78.40
2018-03-07T21:59:27.113Z,78.40
2018-03-07T22:02:31.303Z,78.50
2018-03-07T22:05:35.335Z,78.30
2018-03-07T22:08:38.878Z,78.50
2018-03-07T22:11:42.323Z,79.00
2018-03-07T22:14:46.540Z,81.10
2018-03-07T22:17:51.026Z,80.70
2018-03-07T22:20:54.411Z,81.60
2018-03-07T22:23:58.684Z,83.20
2018-03-07T22:27:03.267Z,85.90
2018-03-07T22:30:06.620Z,85.80
2018-03-07T22:33:10.345Z,86.30
2018-03-07T22:36:14.496Z,87.70
2018-03-07T22:39:17.831Z,87.20
2018-03-07T22:42:21.112Z,88.30
2018-03-07T22:45:24.413Z,88.60
2018-03-07T22:48:27.712Z,88.80
2018-03-07T22:51:31.238Z,88.80
2018-03-07T22:54:34.598Z,89.40
2018-03-07T22:57:38.054Z,89.70
2018-03-07T23:00:46.030Z,90.10
2018-03-07T23:03:49.462Z,90.00
2018-03-07T23:06:53.659Z,90.10
2018-03-07T23:09:57.835Z,90.00
2018-03-07T23:13:01.467Z,89.60
2018-03-07T23:16:04.881Z,89.90
2018-03-07T23:19:08.328Z,90.00
2018-03-07T23:22:11.795Z,90.10
2018-03-07T23:25:15.198Z,90.10
2018-03-07T23:28:18.534Z,90.00
2018-03-07T23:31:21.953Z,89.30
2018-03-07T23:34:25.292Z,89.70
2018-03-07T23:37:29.517Z,90.20
2018-03-07T23:40:32.901Z,90.10
2018-03-07T23:43:37.061Z,89.40
2018-03-07T23:46:40.687Z,89.20
2018-03-07T23:49:43.969Z,89.00
2018-03-07T23:52:47.462Z,89.20
2018-03-07T23:55:50.828Z,89.50
2018-03-07T23:58:54.204Z,90.00
